Ryderwood, WA (98581)

10:53 PM PST on December 02, 2016 (GMT -0800)
Cougar Flat | | Change Station

Elev 364 ft 46.41 °N, 122.98 °W | Updated 0 second ago

Light Rain
Light Rain
43.2 °F
Feels Like 43 °F
N
0.0
Wind Variable Wind from SW
Gusts 0.0 mph

Today
High -- | Low -- °F
--% Chance of Precip.
Yesterday
High -- | Low -- °F
Precip. -- in
Pressure 30.26 in
Visibility 10.0 miles
Clouds Mostly Cloudy 2800 ft
Mostly Cloudy 3400 ft
Overcast 4300 ft
Windchill 43 °F
Dew Point 43 °F
Humidity 98%
Rainfall 0.18 in
Snow Depth Not available.
7:36 AM 4:26 PM
Waxing Crescent, 13% visible
SPECI KKLS 030638Z AUTO 15006KT 10SM -RA BKN028 BKN034 OVC043 07/06 A3026 RMK AO2 P0000
Pressure 30.26 in
Visibility 10.0 miles
Clouds Mostly Cloudy 2800 ft
Mostly Cloudy 3400 ft
Overcast 4300 ft
Windchill 43 °F
Dew Point 43 °F
Humidity 98%
Rainfall 0.18 in
Snow Depth Not available.
7:36 AM 4:26 PM
Waxing Crescent, 13% visible
SPECI KKLS 030638Z AUTO 15006KT 10SM -RA BKN028 BKN034 OVC043 07/06 A3026 RMK AO2 P0000

10-Day Weather Forecast

Almanac

Astronomy

Dec. 02, 2016 Rise Set
Actual Time
Civil Twilight
Nautical Twilight
Astronomical Twilight
Moon
Length of Visible Light
Length of Day
Tomorrow will be .
, % of the Moon is Illuminated

Today's Extremes

State Highs State Lows

Community

WunderPhotos

Upload Photos

1,955,432 photos uploaded!

WunderBlog® & News

Nearby

Air Quality

  Air Quality AQ Index Pollutant
Not available.

Snow Depth

Station Depth Elevation

Earthquake Activity

City Distance Mag. Time & Date
Minimum magnitude displayed is 2.5.

Coastal Water Temperatures

Place Temperature

Stations

Nearby Weather Stations

Station Location Temp. Windchill Dew Point Humidity Wind Precip. Elev Updated Type
                   

Watches & Warnings

There are currently no watches in effect.